Time;durP1;ratioP1;P1;durP2;ratioP2;P2;SDS_P1;SDS_P2;PMS_P1;PMS_P2;Temp;Humidity;BMP_temperature;BMP_pressure;BME280_temperature;BME280_humidity;BME280_pressure;Samples;Min_cycle;Max_cycle;Signal;HPM_P1;HPM_P2
2021/01/17 00:00:51;;;;;;;26.58;15.43;;;;;;;-0.67;71.89;98958.75;5092652;28;20131;-66
2021/01/17 00:03:19;;;;;;;20.38;13.05;;;;;;;-0.67;71.88;98954.38;5093953;28;20477;-65
2021/01/17 00:05:47;;;;;;;20.63;13.95;;;;;;;-0.62;72.13;98949.63;5093535;28;20134;-65
2021/01/17 00:08:18;;;;;;;24.60;15.07;;;;;;;-0.59;72.08;98946.81;5093825;28;20043;-65
2021/01/17 00:10:45;;;;;;;21.48;13.30;;;;;;;-0.48;72.19;98947.78;5093734;28;20131;-66
2021/01/17 00:13:12;;;;;;;23.60;14.68;;;;;;;-0.42;71.89;98934.28;5093787;28;20161;-66
2021/01/17 00:15:39;;;;;;;23.52;14.85;;;;;;;-0.39;72.06;98942.69;5093480;28;20052;-65
2021/01/17 00:18:07;;;;;;;24.15;13.60;;;;;;;-0.32;72.11;98932.66;5092676;28;20702;-66
2021/01/17 00:20:35;;;;;;;21.08;14.55;;;;;;;-0.29;71.86;98922.84;5093679;28;20044;-65
2021/01/17 00:23:03;;;;;;;25.40;15.45;;;;;;;-0.26;71.91;98921.75;5092501;28;20047;-66
2021/01/17 00:25:30;;;;;;;22.88;14.40;;;;;;;-0.22;71.66;98917.16;5094010;28;20047;-66
2021/01/17 00:28:01;;;;;;;22.95;13.52;;;;;;;-0.23;71.37;98913.72;5092208;28;20089;-65
2021/01/17 00:30:29;;;;;;;26.27;14.38;;;;;;;-0.23;71.71;98916.31;5093546;28;20048;-66
2021/01/17 00:32:57;;;;;;;22.27;14.27;;;;;;;-0.21;71.87;98909.22;5093624;28;20044;-65
2021/01/17 00:35:25;;;;;;;21.65;13.15;;;;;;;-0.19;71.73;98907.34;5092030;28;20516;-65
2021/01/17 00:37:55;;;;;;;20.83;13.48;;;;;;;-0.20;71.65;98899.69;5093554;28;20046;-66
2021/01/17 00:40:23;;;;;;;23.65;13.95;;;;;;;-0.22;71.68;98897.19;5092093;28;20044;-66
2021/01/17 00:42:51;;;;;;;22.88;13.77;;;;;;;-0.18;71.86;98887.38;5092098;28;20117;-69
2021/01/17 00:45:20;;;;;;;22.75;14.18;;;;;;;-0.16;71.82;98893.28;5093154;28;20102;-66
2021/01/17 00:47:49;;;;;;;21.40;13.57;;;;;;;-0.12;71.64;98889.50;5093410;28;20069;-66
2021/01/17 00:50:20;;;;;;;23.48;14.25;;;;;;;-0.08;71.70;98886.53;5091882;28;20097;-65
2021/01/17 00:52:51;;;;;;;22.45;14.40;;;;;;;-0.14;71.62;98878.38;5092284;28;20075;-66
2021/01/17 00:55:21;;;;;;;25.58;15.45;;;;;;;-0.17;71.69;98879.44;5091640;28;20088;-66
2021/01/17 00:57:48;;;;;;;23.55;14.95;;;;;;;-0.36;71.51;98864.53;5093857;28;20545;-66
2021/01/17 01:00:18;;;;;;;25.10;15.18;;;;;;;-0.38;72.31;98866.41;5093799;28;20036;-66
2021/01/17 01:03:01;;;;;;;22.35;14.38;;;;;;;-0.34;71.67;98857.41;5094132;28;20081;-66
2021/01/17 01:05:28;;;;;;;21.33;13.05;;;;;;;-0.50;71.65;98860.41;5091816;28;20040;-65
2021/01/17 01:07:59;;;;;;;21.50;13.52;;;;;;;-0.48;72.35;98856.88;5094040;28;20121;-66
2021/01/17 01:10:26;;;;;;;21.02;12.88;;;;;;;-0.40;72.18;98849.31;5093213;28;20070;-65
2021/01/17 01:12:54;;;;;;;21.58;13.95;;;;;;;-0.40;72.28;98855.31;5092838;28;20503;-66
2021/01/17 01:15:22;;;;;;;23.48;14.32;;;;;;;-0.31;72.63;98856.34;5092616;28;20048;-66
2021/01/17 01:17:48;;;;;;;21.63;13.35;;;;;;;-0.21;72.34;98846.03;5092610;28;20046;-66
2021/01/17 01:20:15;;;;;;;22.55;14.63;;;;;;;-0.22;71.96;98855.63;5091712;28;20414;-66
2021/01/17 01:22:42;;;;;;;22.10;13.57;;;;;;;-0.20;71.92;98847.72;5092853;28;20047;-66
2021/01/17 01:25:11;;;;;;;23.30;15.43;;;;;;;-0.20;71.69;98842.53;5091081;28;20155;-66
2021/01/17 01:27:39;;;;;;;22.42;14.18;;;;;;;-0.16;71.67;98842.16;5091170;28;20048;-66
2021/01/17 01:30:06;;;;;;;21.83;14.52;;;;;;;-0.15;71.72;98845.56;5091231;28;20055;-66
2021/01/17 01:32:33;;;;;;;23.38;15.02;;;;;;;-0.12;71.70;98843.53;5092604;28;20066;-65
2021/01/17 01:35:00;;;;;;;24.77;13.82;;;;;;;-0.10;72.06;98848.59;5091091;28;20245;-65
2021/01/17 01:37:27;;;;;;;23.20;14.93;;;;;;;-0.07;71.82;98840.56;5092436;28;20047;-66
2021/01/17 01:39:54;;;;;;;19.75;12.93;;;;;;;-0.06;71.73;98835.25;5092487;28;20044;-66
2021/01/17 01:42:20;;;;;;;20.38;13.25;;;;;;;-0.02;71.37;98838.41;5092587;28;20044;-66
2021/01/17 01:44:48;;;;;;;21.25;14.20;;;;;;;-0.03;71.50;98836.78;5092371;28;20044;-65
2021/01/17 01:47:21;;;;;;;22.50;14.25;;;;;;;-0.17;71.11;98837.88;5092169;28;20717;-66
2021/01/17 01:49:48;;;;;;;;;;;;;;;-0.22;72.13;98834.00;5092914;28;20080;-66
2021/01/17 01:52:15;;;;;;;23.75;14.32;;;;;;;-0.19;72.00;98842.38;5092264;28;19919;-65
2021/01/17 01:54:42;;;;;;;22.77;13.85;;;;;;;-0.23;71.93;98840.97;5091743;28;20058;-66
2021/01/17 01:57:09;;;;;;;20.85;14.13;;;;;;;-0.30;71.96;98842.41;5092203;28;20040;-66
2021/01/17 01:59:36;;;;;;;22.40;14.50;;;;;;;-0.32;71.89;98850.34;5092163;28;20048;-65
2021/01/17 02:02:08;;;;;;;23.60;14.32;;;;;;;-0.34;71.98;98843.59;5092404;28;20043;-66
2021/01/17 02:04:35;;;;;;;22.90;14.32;;;;;;;-0.33;72.25;98840.06;5090805;28;20493;-65
2021/01/17 02:07:43;;;;;;;23.77;14.30;;;;;;;-0.22;72.50;98842.63;5092081;28;20047;-65
2021/01/17 02:10:10;;;;;;;23.30;14.45;;;;;;;-0.18;72.04;98841.44;5092352;28;20535;-66
2021/01/17 02:12:44;;;;;;;25.88;15.45;;;;;;;-0.20;72.12;98834.72;5092461;28;20048;-66
2021/01/17 02:15:18;;;;;;;22.13;13.60;;;;;;;-0.23;71.65;98842.75;5091989;28;20044;-66
2021/01/17 02:17:47;;;;;;;24.25;14.52;;;;;;;-0.29;71.87;98847.50;5092007;28;20390;-66
2021/01/17 02:20:16;;;;;;;23.23;13.57;;;;;;;-0.24;71.88;98849.72;5091700;28;20048;-65
2021/01/17 02:23:01;;;;;;;24.67;15.15;;;;;;;-0.28;71.76;98849.16;5091725;28;20040;-66
2021/01/17 02:25:32;;;;;;;21.55;14.32;;;;;;;-0.35;71.78;98847.16;5091684;28;20055;-66
2021/01/17 02:28:01;;;;;;;21.63;13.77;;;;;;;-0.39;71.93;98843.16;5091617;28;20452;-66
2021/01/17 02:30:31;;;;;;;20.67;14.02;;;;;;;-0.30;71.93;98840.63;5091824;28;20048;-66
2021/01/17 02:33:01;;;;;;;20.33;13.50;;;;;;;-0.36;71.94;98842.91;5092211;28;20059;-65
2021/01/17 02:35:31;;;;;;;22.70;14.35;;;;;;;-0.33;71.98;98830.50;5090050;28;20048;-66
2021/01/17 02:38:10;;;;;;;21.60;13.95;;;;;;;-0.25;71.91;98829.88;5091469;28;20409;-66
2021/01/17 02:40:47;;;;;;;20.55;13.00;;;;;;;-0.23;71.65;98829.75;5091713;28;20052;-66
2021/01/17 02:43:14;;;;;;;24.15;15.05;;;;;;;-0.37;71.63;98818.72;5090135;28;20143;-66
2021/01/17 02:45:42;;;;;;;23.60;14.27;;;;;;;-0.41;71.78;98825.09;5091032;28;20378;-65
2021/01/17 02:48:09;;;;;;;23.42;14.27;;;;;;;-0.38;71.67;98814.44;5091608;28;20040;-66
2021/01/17 02:50:36;;;;;;;21.08;14.13;;;;;;;-0.44;71.96;98814.97;5091674;28;20037;-66
2021/01/17 02:53:08;;;;;;;22.48;13.57;;;;;;;-0.38;71.97;98821.41;5091468;28;20044;-65
2021/01/17 02:55:37;;;;;;;19.83;13.82;;;;;;;-0.38;71.84;98822.25;5091089;28;20481;-65
2021/01/17 02:58:10;;;;;;;22.63;14.73;;;;;;;-0.42;71.88;98820.00;5091240;28;20036;-65
2021/01/17 03:00:40;;;;;;;26.05;15.38;;;;;;;-0.40;72.15;98823.31;5091386;28;20055;-66
2021/01/17 03:03:08;;;;;;;23.85;14.80;;;;;;;-0.41;71.97;98813.88;5090287;28;20072;-65
2021/01/17 03:05:37;;;;;;;26.05;14.90;;;;;;;-0.42;72.14;98813.03;5091297;28;20066;-65
2021/01/17 03:08:06;;;;;;;24.88;15.40;;;;;;;-0.48;72.13;98810.94;5090953;28;20063;-66
2021/01/17 03:10:33;;;;;;;21.42;14.65;;;;;;;-0.41;72.21;98811.25;5091124;28;20043;-65
2021/01/17 03:13:01;;;;;;;22.50;14.23;;;;;;;-0.50;72.34;98818.84;5091434;28;20107;-67
2021/01/17 03:15:33;;;;;;;24.25;14.93;;;;;;;-0.46;72.76;98811.63;5090853;28;20081;-65
2021/01/17 03:18:01;;;;;;;27.05;15.55;;;;;;;-0.43;72.75;98818.38;5090961;28;20044;-65
2021/01/17 03:20:27;;;;;;;26.05;16.60;;;;;;;-0.43;72.99;98810.59;5091329;28;20044;-65
2021/01/17 03:22:54;;;;;;;23.73;15.40;;;;;;;-0.40;73.05;98818.97;5090753;28;20048;-65
2021/01/17 03:25:21;;;;;;;22.50;14.70;;;;;;;-0.42;73.19;98815.63;5090700;28;20050;-65
2021/01/17 03:27:48;;;;;;;22.73;14.68;;;;;;;-0.34;73.04;98815.03;5090798;28;20401;-65
2021/01/17 03:30:15;;;;;;;22.85;14.77;;;;;;;-0.31;73.08;98813.00;5091003;28;20044;-65
2021/01/17 03:32:43;;;;;;;25.33;14.70;;;;;;;-0.33;72.88;98808.88;5094117;28;20046;-65
2021/01/17 03:35:11;;;;;;;27.35;15.82;;;;;;;-0.31;72.71;98810.41;5092930;28;20055;-65
2021/01/17 03:37:37;;;;;;;24.60;14.63;;;;;;;-0.27;72.80;98816.19;5094119;28;20044;-66
2021/01/17 03:40:06;;;;;;;23.33;14.02;;;;;;;-0.26;72.62;98821.25;5094516;28;20051;-66
2021/01/17 03:42:32;;;;;;;23.67;15.18;;;;;;;-0.24;72.54;98818.56;5094688;28;20043;-66
2021/01/17 03:45:00;;;;;;;23.30;15.30;;;;;;;-0.28;72.52;98814.56;5092728;28;20076;-66
2021/01/17 03:47:26;;;;;;;28.50;16.85;;;;;;;-0.33;72.79;98817.53;5094115;28;20048;-66
2021/01/17 03:49:54;;;;;;;27.52;15.30;;;;;;;-0.30;72.76;98809.47;5092937;28;20066;-66
2021/01/17 03:52:21;;;;;;;23.13;14.73;;;;;;;-0.32;72.61;98813.16;5094209;28;20115;-66
2021/01/17 03:54:49;;;;;;;25.80;15.60;;;;;;;-0.35;72.63;98813.38;5093669;28;20127;-66
2021/01/17 03:57:16;;;;;;;23.08;14.73;;;;;;;-0.31;72.85;98823.41;5094029;28;20129;-66
2021/01/17 03:59:42;;;;;;;25.25;14.73;;;;;;;-0.29;72.89;98821.53;5094207;28;20464;-66
2021/01/17 04:02:10;;;;;;;24.25;15.75;;;;;;;-0.22;72.67;98824.44;5094099;28;20040;-66
2021/01/17 04:04:37;;;;;;;27.38;15.52;;;;;;;-0.25;72.91;98829.88;5093537;28;20549;-65
2021/01/17 04:07:04;;;;;;;24.42;15.20;;;;;;;-0.30;73.01;98821.63;5093716;28;20036;-66
2021/01/17 04:09:31;;;;;;;25.60;14.90;;;;;;;-0.31;72.94;98827.78;5094058;28;20127;-66
2021/01/17 04:11:58;;;;;;;25.77;15.57;;;;;;;-0.36;73.11;98824.72;5093709;28;20501;-66
2021/01/17 04:14:24;;;;;;;27.10;16.65;;;;;;;-0.39;73.34;98833.59;5093342;28;20422;-66
2021/01/17 04:16:52;;;;;;;25.67;15.95;;;;;;;-0.39;73.26;98836.19;5093853;28;20444;-65
2021/01/17 04:19:19;;;;;;;25.52;15.57;;;;;;;-0.35;73.33;98834.16;5094020;28;20121;-66
2021/01/17 04:21:46;;;;;;;25.73;15.48;;;;;;;-0.28;73.09;98830.97;5094134;28;20040;-65
2021/01/17 04:24:14;;;;;;;25.08;15.80;;;;;;;-0.32;73.07;98841.72;5092657;28;20048;-65
2021/01/17 04:26:40;;;;;;;26.30;16.50;;;;;;;-0.32;73.26;98842.53;5094196;28;20509;-66
2021/01/17 04:29:07;;;;;;;26.27;15.43;;;;;;;-0.30;73.43;98834.63;5093946;28;20040;-66
2021/01/17 04:31:41;;;;;;;23.20;14.60;;;;;;;-0.25;73.38;98824.69;5093945;28;20047;-66
2021/01/17 04:34:09;;;;;;;26.65;15.20;;;;;;;-0.20;73.22;98829.53;5093881;28;20044;-66
2021/01/17 04:36:35;;;;;;;26.20;16.15;;;;;;;-0.11;73.14;98833.97;5092640;28;20402;-66
2021/01/17 04:39:03;;;;;;;24.00;15.48;;;;;;;-0.13;72.87;98841.88;5093781;28;20486;-66
2021/01/17 04:41:34;;;;;;;26.13;16.02;;;;;;;-0.12;73.19;98834.94;5093462;28;20047;-67
2021/01/17 04:44:05;;;;;;;26.33;15.65;;;;;;;-0.11;73.24;98834.78;5093538;28;20093;-67
2021/01/17 04:46:32;;;;;;;25.02;15.43;;;;;;;-0.11;72.86;98831.38;5093351;28;20039;-66
2021/01/17 04:49:01;;;;;;;26.77;16.48;;;;;;;-0.12;73.12;98840.13;5093664;28;20047;-67
2021/01/17 04:51:30;;;;;;;26.98;16.23;;;;;;;-0.07;73.01;98841.41;5093442;28;20040;-67
2021/01/17 04:53:59;;;;;;;25.60;16.33;;;;;;;-0.06;72.92;98844.81;5093752;28;20048;-66
2021/01/17 04:56:27;;;;;;;26.65;15.93;;;;;;;-0.05;72.84;98833.47;5093127;28;20036;-67
2021/01/17 04:59:11;;;;;;;26.58;15.95;;;;;;;-0.12;72.72;98840.94;5093358;28;20044;-67
2021/01/17 05:02:11;;;;;;;27.42;16.45;;;;;;;-0.22;72.92;98832.22;5093483;28;20059;-66
2021/01/17 05:05:00;;;;;;;25.23;15.00;;;;;;;-0.15;73.19;98838.59;5087618;28;20326;-66
2021/01/17 05:07:35;;;;;;;26.58;15.30;;;;;;;-0.13;73.21;98847.06;5093122;28;20037;-66
2021/01/17 05:10:06;;;;;;;25.58;15.48;;;;;;;-0.13;73.02;98841.88;5093285;28;20044;-66
2021/01/17 05:12:37;;;;;;;28.02;16.52;;;;;;;-0.12;73.17;98843.53;5093352;28;20059;-66
2021/01/17 05:15:07;;;;;;;28.38;16.48;;;;;;;-0.21;73.17;98833.06;5092985;28;20044;-66
2021/01/17 05:17:38;;;;;;;27.13;16.42;;;;;;;-0.15;73.19;98841.19;5093154;28;20055;-66
2021/01/17 05:20:07;;;;;;;28.33;16.67;;;;;;;-0.12;73.00;98840.13;5091738;28;20509;-66
2021/01/17 05:22:35;;;;;;;27.15;17.13;;;;;;;-0.09;73.12;98835.47;5093181;28;20044;-66
2021/01/17 05:25:03;;;;;;;25.55;16.52;;;;;;;-0.13;73.10;98834.06;5092841;28;20040;-66
2021/01/17 05:27:30;;;;;;;30.13;17.58;;;;;;;-0.09;73.23;98832.06;5092816;28;20047;-66
2021/01/17 05:29:57;;;;;;;27.33;17.00;;;;;;;-0.07;73.39;98831.00;5092827;28;20047;-66
2021/01/17 05:32:25;;;;;;;25.10;16.02;;;;;;;-0.05;73.27;98823.06;5093030;28;20039;-66
2021/01/17 05:34:52;;;;;;;30.60;17.48;;;;;;;-0.02;72.94;98834.03;5093179;28;20427;-66
2021/01/17 05:37:20;;;;;;;31.52;16.95;;;;;;;-0.10;73.05;98828.63;5094194;28;20036;-65
2021/01/17 05:39:58;;;;;;;27.73;16.48;;;;;;;-0.06;73.63;98832.63;5094180;28;20043;-66
2021/01/17 05:42:27;;;;;;;25.88;15.35;;;;;;;0.00;73.31;98833.94;5093123;28;20571;-66
2021/01/17 05:44:56;;;;;;;27.13;16.60;;;;;;;0.02;73.23;98831.19;5091557;28;20048;-66
2021/01/17 05:47:24;;;;;;;28.35;16.83;;;;;;;0.02;73.22;98828.59;5092967;28;20047;-66
2021/01/17 05:49:52;;;;;;;24.67;15.85;;;;;;;-0.03;72.82;98831.56;5092401;28;20055;-66
2021/01/17 05:52:20;;;;;;;26.48;16.27;;;;;;;-0.06;73.25;98821.44;5092590;28;20044;-66
2021/01/17 05:54:49;;;;;;;25.60;16.23;;;;;;;-0.20;72.80;98822.56;5091368;28;20040;-66
2021/01/17 05:57:17;;;;;;;28.55;16.08;;;;;;;-0.19;73.51;98824.19;5092280;28;20052;-66
2021/01/17 05:59:44;;;;;;;26.90;16.15;;;;;;;-0.08;73.60;98821.56;5092376;28;20426;-66
2021/01/17 06:02:15;;;;;;;25.80;15.07;;;;;;;0.01;73.60;98834.75;5092390;28;20105;-66
2021/01/17 06:04:43;;;;;;;26.90;17.00;;;;;;;0.06;73.54;98837.78;5091953;28;20059;-66
2021/01/17 06:07:12;;;;;;;28.52;17.45;;;;;;;0.08;73.37;98839.34;5092125;28;20494;-66
2021/01/17 06:09:39;;;;;;;27.33;16.73;;;;;;;0.08;73.29;98836.72;5092158;28;20409;-66
2021/01/17 06:12:07;;;;;;;27.52;17.45;;;;;;;0.04;73.20;98834.47;5092460;28;20046;-66
2021/01/17 06:14:34;;;;;;;28.67;16.95;;;;;;;0.06;73.27;98840.41;5091929;28;20055;-66
2021/01/17 06:17:03;;;;;;;28.55;17.33;;;;;;;0.03;73.45;98836.25;5091984;28;20452;-66
2021/01/17 06:19:32;;;;;;;29.05;16.90;;;;;;;-0.02;73.48;98831.44;5092153;28;20525;-66
2021/01/17 06:22:01;;;;;;;28.58;16.48;;;;;;;0.04;73.35;98837.09;5091978;28;20560;-66
2021/01/17 06:24:40;;;;;;;32.08;17.40;;;;;;;0.08;73.37;98844.53;5091832;28;20036;-66
2021/01/17 06:27:08;;;;;;;29.17;17.10;;;;;;;0.04;73.26;98842.28;5092334;28;20066;-66
2021/01/17 06:29:36;;;;;;;30.65;18.25;;;;;;;-0.03;73.40;98848.00;5092015;28;20040;-66
2021/01/17 06:32:14;;;;;;;27.05;16.92;;;;;;;0.02;73.54;98844.19;5090911;28;20047;-66
2021/01/17 06:34:47;;;;;;;29.67;17.33;;;;;;;0.01;73.52;98845.97;5091516;28;20127;-66
2021/01/17 06:37:15;;;;;;;28.85;18.00;;;;;;;-0.04;73.58;98848.13;5091867;28;20062;-66
2021/01/17 06:39:47;;;;;;;32.30;18.23;;;;;;;0.02;73.63;98846.78;5090714;28;20069;-66
2021/01/17 06:42:16;;;;;;;28.55;17.27;;;;;;;0.05;73.58;98854.34;5091971;28;20115;-66
2021/01/17 06:44:43;;;;;;;30.52;18.05;;;;;;;0.08;73.34;98857.53;5091674;28;20066;-66
2021/01/17 06:47:15;;;;;;;32.95;19.08;;;;;;;0.09;73.44;98861.78;5091706;28;20386;-66
2021/01/17 06:49:45;;;;;;;28.38;17.50;;;;;;;0.08;73.36;98860.13;5091989;28;20043;-66
2021/01/17 06:52:14;;;;;;;28.45;17.95;;;;;;;0.10;73.43;98870.38;5092427;28;20040;-65
2021/01/17 06:54:47;;;;;;;31.05;17.50;;;;;;;0.07;73.57;98876.66;5092168;28;20032;-66
2021/01/17 06:57:14;;;;;;;29.00;16.90;;;;;;;-0.02;73.71;98877.41;5092144;28;20048;-66
2021/01/17 06:59:42;;;;;;;32.25;18.40;;;;;;;-0.04;73.73;98874.94;5092053;28;20047;-65
2021/01/17 07:02:30;;;;;;;28.65;18.40;;;;;;;0.06;73.84;98879.38;5092214;28;20055;-66
2021/01/17 07:05:25;;;;;;;28.45;16.90;;;;;;;0.13;73.74;98883.97;5093198;28;20073;-66
2021/01/17 07:08:02;;;;;;;;;;;;;;;0.14;73.70;98884.78;5095892;28;20036;-66
2021/01/17 07:10:39;;;;;;;30.13;16.60;;;;;;;0.10;73.43;98886.81;5095629;28;20491;-66
2021/01/17 07:13:08;;;;;;;32.28;17.80;;;;;;;0.13;73.18;98899.56;5095921;28;20073;-66
2021/01/17 07:15:39;;;;;;;28.85;16.65;;;;;;;0.12;73.51;98907.47;5095482;28;20044;-66
2021/01/17 07:18:07;;;;;;;27.77;16.45;;;;;;;0.13;73.45;98896.97;5095610;28;20040;-66
2021/01/17 07:20:39;;;;;;;32.60;19.25;;;;;;;0.17;73.38;98902.75;5094594;28;20090;-67
2021/01/17 07:23:08;;;;;;;28.08;16.20;;;;;;;0.20;73.37;98905.06;5095725;28;20543;-66
2021/01/17 07:25:37;;;;;;;29.73;17.98;;;;;;;0.24;73.30;98909.06;5095398;28;20047;-66
2021/01/17 07:28:10;;;;;;;28.63;16.73;;;;;;;0.31;73.33;98899.00;5095143;28;20067;-66
2021/01/17 07:30:45;;;;;;;30.05;17.45;;;;;;;0.39;73.31;98899.22;5095271;28;20048;-66
2021/01/17 07:33:14;;;;;;;29.15;17.25;;;;;;;0.33;73.19;98908.34;5095641;28;20570;-66
2021/01/17 07:35:45;;;;;;;30.48;18.58;;;;;;;0.39;73.44;98907.00;5093632;28;20052;-67
2021/01/17 07:38:16;;;;;;;32.35;18.88;;;;;;;0.47;73.35;98917.63;5095336;28;20044;-67
2021/01/17 07:40:50;;;;;;;30.38;18.00;;;;;;;0.58;73.22;98911.53;5095187;28;20032;-66
2021/01/17 07:43:18;;;;;;;;;;;;;;;0.64;73.01;98916.22;5095516;28;20086;-66
2021/01/17 07:45:45;;;;;;;25.67;16.90;;;;;;;0.63;72.99;98925.00;5094636;28;19920;-66
2021/01/17 07:48:15;;;;;;;24.65;16.45;;;;;;;0.59;72.76;98934.81;5094907;28;20036;-67
2021/01/17 07:50:44;;;;;;;29.08;17.35;;;;;;;0.63;72.89;98933.63;5094789;28;20044;-66
2021/01/17 07:53:40;;;;;;;29.67;17.83;;;;;;;0.59;72.65;98940.03;5093911;28;20413;-66
2021/01/17 07:56:11;;;;;;;29.88;17.83;;;;;;;0.54;72.92;98936.97;5074538;28;20059;-66
2021/01/17 07:58:42;;;;;;;30.23;18.60;;;;;;;0.59;73.16;98934.81;5094738;28;20044;-66
2021/01/17 08:01:47;;;;;;;28.98;16.65;;;;;;;0.64;73.20;98937.88;5094681;28;20582;-67
2021/01/17 08:04:25;;;;;;;31.37;17.37;;;;;;;0.66;73.19;98943.78;5094306;28;20047;-67
2021/01/17 08:06:57;;;;;;;25.80;16.35;;;;;;;0.72;72.78;98953.66;5094718;28;20036;-66
2021/01/17 08:09:44;;;;;;;29.77;18.15;;;;;;;0.74;72.94;98948.34;5094561;28;20040;-66
2021/01/17 08:12:28;;;;;;;28.10;17.13;;;;;;;0.82;72.70;98948.53;5094426;28;20040;-67
2021/01/17 08:15:14;;;;;;;;;;;;;;;0.82;72.67;98958.13;5094722;28;20040;-67
2021/01/17 08:17:41;;;;;;;27.67;16.88;;;;;;;0.90;72.59;98953.94;5093557;28;20389;-66
2021/01/17 08:20:09;;;;;;;30.58;18.65;;;;;;;0.99;72.30;98963.56;5094140;28;20508;-66
2021/01/17 08:22:45;;;;;;;29.98;18.92;;;;;;;0.97;72.25;98960.25;5094261;28;20032;-66
2021/01/17 08:25:48;;;;;;;27.80;17.45;;;;;;;0.94;72.28;98957.94;5094045;28;20097;-66
2021/01/17 08:28:40;;;;;;;27.33;18.08;;;;;;;0.98;72.37;98968.94;5094234;28;20036;-66
2021/01/17 08:31:33;;;;;;;29.73;17.98;;;;;;;1.04;72.47;98972.78;5094479;28;20097;-67
2021/01/17 08:34:15;;;;;;;27.10;16.83;;;;;;;1.12;72.46;98968.59;5092964;28;20044;-66
2021/01/17 08:36:44;;;;;;;29.00;17.50;;;;;;;1.17;72.25;98976.81;5094057;28;20437;-66
2021/01/17 08:39:12;;;;;;;29.13;18.40;;;;;;;1.22;72.18;98979.91;5094332;28;20501;-66
2021/01/17 08:41:45;;;;;;;26.30;15.88;;;;;;;1.30;71.92;98988.81;5093052;28;20498;-66
2021/01/17 08:44:16;;;;;;;24.33;17.15;;;;;;;1.27;71.69;98986.50;5093717;28;20123;-66
2021/01/17 08:46:43;;;;;;;28.63;17.27;;;;;;;1.33;71.84;98989.38;5093666;28;20094;-66
2021/01/17 08:49:11;;;;;;;25.42;16.98;;;;;;;1.40;71.66;98987.09;5093604;28;20085;-66
2021/01/17 08:51:38;;;;;;;29.80;17.60;;;;;;;1.48;71.46;98984.69;5093729;28;20052;-65
2021/01/17 08:54:25;;;;;;;28.25;17.08;;;;;;;1.54;71.21;98991.13;5093699;28;20420;-66
2021/01/17 08:56:54;;;;;;;25.35;15.70;;;;;;;1.52;71.25;99004.31;5092293;28;20044;-66
2021/01/17 08:59:33;;;;;;;27.33;15.30;;;;;;;1.40;70.88;99005.34;5093596;28;20044;-65
2021/01/17 09:02:01;;;;;;;22.70;14.82;;;;;;;1.43;71.29;98999.88;5093616;28;20071;-66
2021/01/17 09:04:29;;;;;;;22.13;14.20;;;;;;;1.52;71.05;98995.66;5093280;28;20053;-66
2021/01/17 09:06:58;;;;;;;25.52;15.02;;;;;;;1.53;70.98;98992.91;5093822;28;20131;-66
2021/01/17 09:09:25;;;;;;;23.15;14.15;;;;;;;1.55;70.90;98997.97;5093856;28;20064;-66
2021/01/17 09:11:54;;;;;;;24.17;15.15;;;;;;;1.53;71.18;98997.31;5092648;28;20493;-67
2021/01/17 09:14:27;;;;;;;22.35;13.98;;;;;;;1.42;71.28;98999.03;5094030;28;20131;-67
2021/01/17 09:17:08;;;;;;;25.60;17.25;;;;;;;1.32;71.51;99002.56;5094241;28;20082;-67
2021/01/17 09:19:36;;;;;;;25.08;15.73;;;;;;;1.14;72.11;99007.50;5092417;28;20494;-66
2021/01/17 09:22:05;;;;;;;23.92;15.85;;;;;;;1.10;72.41;99006.09;5094062;28;20122;-65
2021/01/17 09:24:34;;;;;;;26.45;17.17;;;;;;;1.12;72.60;99018.06;5092185;28;20528;-65
2021/01/17 09:27:07;;;;;;;28.13;16.50;;;;;;;1.01;72.79;99014.69;5094020;28;20040;-65
2021/01/17 09:29:40;;;;;;;28.00;16.42;;;;;;;1.11;73.23;99007.78;5093696;28;20066;-67
2021/01/17 09:32:12;;;;;;;28.95;16.13;;;;;;;1.04;73.15;99009.22;5092349;28;20044;-66
2021/01/17 09:34:42;;;;;;;26.30;16.10;;;;;;;1.08;73.28;99015.84;5093176;28;20108;-67
2021/01/17 09:37:11;;;;;;;27.17;14.85;;;;;;;1.08;73.38;99013.22;5093480;28;20074;-67
2021/01/17 09:39:41;;;;;;;27.17;15.90;;;;;;;1.15;73.34;99025.63;5092377;28;20050;-65
2021/01/17 09:42:10;;;;;;;25.17;15.15;;;;;;;1.19;73.14;99023.59;5093603;28;20052;-66
2021/01/17 09:44:39;;;;;;;28.67;16.50;;;;;;;1.25;73.07;99020.47;5093136;28;20044;-65
2021/01/17 09:47:17;;;;;;;25.33;14.95;;;;;;;1.31;73.17;99026.97;5093383;28;20047;-65
2021/01/17 09:49:46;;;;;;;26.85;16.05;;;;;;;1.42;72.88;99026.84;5093294;28;20039;-66
2021/01/17 09:52:23;;;;;;;24.15;14.65;;;;;;;1.53;72.86;99029.41;5093253;28;20036;-66
2021/01/17 09:54:57;;;;;;;27.55;15.48;;;;;;;1.70;72.58;99033.16;5092701;28;20054;-66
2021/01/17 09:57:30;;;;;;;27.27;16.23;;;;;;;1.81;72.14;99040.09;5092931;28;20044;-66
2021/01/17 10:00:01;;;;;;;27.40;15.80;;;;;;;1.99;71.99;99049.75;5093110;28;20040;-66
2021/01/17 10:02:36;;;;;;;25.52;15.23;;;;;;;1.94;71.92;99054.53;5093290;28;20509;-66
2021/01/17 10:05:06;;;;;;;30.70;17.10;;;;;;;1.93;71.98;99052.06;5091585;28;20403;-67
2021/01/17 10:07:33;;;;;;;26.95;15.75;;;;;;;1.97;72.20;99054.28;5092783;28;20047;-66
2021/01/17 10:10:08;;;;;;;29.10;15.93;;;;;;;2.12;72.04;99049.53;5092818;28;20085;-66
2021/01/17 10:12:36;;;;;;;25.25;15.15;;;;;;;2.26;71.42;99047.50;5091757;28;20064;-66
2021/01/17 10:15:11;;;;;;;31.02;16.10;;;;;;;2.37;71.43;99057.84;5092951;28;20044;-66
2021/01/17 10:17:46;;;;;;;27.48;16.48;;;;;;;2.38;71.43;99052.47;5093162;28;20052;-66
2021/01/17 10:20:25;;;;;;;27.27;16.27;;;;;;;2.37;71.42;99053.44;5091999;28;20052;-65
2021/01/17 10:23:03;;;;;;;29.60;16.38;;;;;;;2.36;71.66;99053.56;5092885;28;20040;-65
2021/01/17 10:25:32;;;;;;;26.08;16.13;;;;;;;2.43;71.50;99052.06;5092458;28;20071;-66
2021/01/17 10:28:02;;;;;;;25.90;16.48;;;;;;;2.45;71.23;99058.81;5091024;28;20044;-66
2021/01/17 10:30:31;;;;;;;27.60;16.25;;;;;;;2.28;71.26;99051.63;5092607;28;20040;-66
2021/01/17 10:33:04;;;;;;;23.85;15.02;;;;;;;2.27;71.42;99052.59;5092786;28;20047;-66
2021/01/17 10:35:37;;;;;;;25.90;16.90;;;;;;;2.20;71.48;99057.53;5092148;28;20040;-66
2021/01/17 10:38:05;;;;;;;29.17;17.83;;;;;;;2.24;71.84;99058.06;5092714;28;20413;-66
2021/01/17 10:40:36;;;;;;;28.88;17.35;;;;;;;2.05;71.85;99064.06;5094190;28;20100;-66
2021/01/17 10:43:06;;;;;;;26.23;15.50;;;;;;;2.04;72.21;99059.81;5096671;28;20050;-66
2021/01/17 10:45:35;;;;;;;31.65;18.08;;;;;;;2.05;72.45;99056.25;5095706;28;20067;-66
2021/01/17 10:48:11;;;;;;;32.75;19.25;;;;;;;2.11;72.54;99055.69;5097930;28;20048;-66
2021/01/17 10:50:50;;;;;;;31.65;19.05;;;;;;;2.16;72.69;99056.16;5097584;28;20408;-66
2021/01/17 10:53:19;;;;;;;26.42;15.85;;;;;;;1.95;72.71;99056.19;5095680;28;20044;-66
2021/01/17 10:55:50;;;;;;;28.30;16.85;;;;;;;2.10;72.96;99061.06;5096204;28;20048;-67
2021/01/17 10:58:25;;;;;;;27.23;15.35;;;;;;;2.19;73.05;99057.63;5095178;28;20050;-66
2021/01/17 11:00:53;;;;;;;31.00;17.70;;;;;;;2.18;73.19;99054.22;5096468;28;20401;-67
2021/01/17 11:03:31;;;;;;;29.98;18.17;;;;;;;2.35;73.09;99059.75;5096455;28;20413;-67
2021/01/17 11:06:05;;;;;;;25.48;15.38;;;;;;;2.37;73.02;99068.28;5095989;28;20028;-67
2021/01/17 11:08:34;;;;;;;26.98;16.27;;;;;;;2.44;73.03;99056.31;5096252;28;20036;-66
2021/01/17 11:11:00;;;;;;;25.40;16.80;;;;;;;2.46;72.93;99070.91;5095661;28;20044;-66
2021/01/17 11:13:27;;;;;;;31.17;17.67;;;;;;;2.45;72.97;99068.44;5096554;28;20237;-67
2021/01/17 11:15:54;;;;;;;29.33;16.95;;;;;;;2.36;73.07;99064.81;5095183;28;20040;-67
2021/01/17 11:18:22;;;;;;;25.55;15.57;;;;;;;2.34;73.18;99060.72;5095896;28;20089;-67
2021/01/17 11:20:55;;;;;;;28.42;16.02;;;;;;;2.36;73.32;99058.78;5095807;28;20118;-67
2021/01/17 11:23:24;;;;;;;24.20;15.13;;;;;;;2.36;73.24;99061.38;5096450;28;20086;-66
2021/01/17 11:25:58;;;;;;;24.83;14.77;;;;;;;2.37;73.36;99061.28;5094872;28;20047;-66
2021/01/17 11:28:28;;;;;;;24.77;14.95;;;;;;;2.44;73.13;99059.75;5093960;28;20068;-65
2021/01/17 11:30:57;;;;;;;23.83;15.68;;;;;;;2.38;73.06;99067.31;5095185;28;20128;-67
2021/01/17 11:33:28;;;;;;;25.15;15.32;;;;;;;2.44;73.14;99074.59;5093780;28;20052;-67
2021/01/17 11:36:02;;;;;;;30.13;15.57;;;;;;;2.40;73.20;99068.00;5094955;28;20117;-66
2021/01/17 11:38:46;;;;;;;26.35;16.48;;;;;;;2.41;73.08;99064.44;5093869;28;20044;-67